SLTA weather

Taquipirenda Airport
Cordillera, Santa Cruz Department, Bolivia

Public forecast

Using degrees Celsius for public forecast. Weather courtesy of forecast.io.

Closest aviation weather report (METAR) to Taquipirenda Airport

Report is more than 6 hours old.

Closest report is Camiri Airport, 29.8 nm (55.2 km) NW. Retrieved 2019/10/14 23:00 UTC (8 hours ago):

SLCA 142300Z 00000KT 9999 OVC025 20/17 Q1018

Closest aviation forecast (TAF) to Taquipirenda Airport

Forecast is more than 12 hours old.

Closest forecast is Yacuiba Airport, 101.3 nm (187.6 km) SSW. Retrieved 2019/10/03 00:00 UTC (12 days ago):

TAF SLYA 032200Z 0400/0424 00000KT 9999 FEW020 SCT070 TX21/0419Z TN15 /0411Z BECMG 0413/0415 14010KT SCT020 BKN070